Time;durP1;ratioP1;P1;durP2;ratioP2;P2;SDS_P1;SDS_P2;PMS_P1;PMS_P2;Temp;Humidity;BMP_temperature;BMP_pressure;BME280_temperature;BME280_humidity;BME280_pressure;Samples;Min_cycle;Max_cycle;Signal;HPM_P1;HPM_P2
2021/03/19 00:01:55;;;;;;;27.97;14.63;;;;;;;-1.90;74.39;100144.32;124516;1105;104114;-79
2021/03/19 00:04:22;;;;;;;26.73;14.73;;;;;;;-1.90;74.69;100147.73;124542;1105;102303;-79
2021/03/19 00:06:50;;;;;;;25.60;14.03;;;;;;;-1.90;74.30;100140.06;124516;1105;104419;-78
2021/03/19 00:09:17;;;;;;;20.43;12.82;;;;;;;-1.91;74.50;100146.02;124500;1105;104351;-78
2021/03/19 00:11:44;;;;;;;22.67;13.37;;;;;;;-1.92;74.90;100141.75;124511;1105;104203;-79
2021/03/19 00:14:11;;;;;;;23.70;13.57;;;;;;;-1.92;74.38;100134.08;124521;1105;104107;-79
2021/03/19 00:16:39;;;;;;;24.10;13.60;;;;;;;-1.92;74.42;100138.33;124634;1105;104223;-79
2021/03/19 00:19:08;;;;;;;26.30;14.70;;;;;;;-1.94;73.97;100138.30;124496;1105;104166;-79
2021/03/19 00:21:37;;;;;;;25.57;15.23;;;;;;;-1.97;74.29;100129.73;124551;1106;104050;-79
2021/03/19 00:24:08;;;;;;;26.37;15.67;;;;;;;-1.98;73.87;100130.53;124833;1105;104214;-79
2021/03/19 00:26:35;;;;;;;27.17;17.07;;;;;;;-2.00;74.65;100125.41;124665;1105;104197;-78
2021/03/19 00:29:02;;;;;;;26.55;16.05;;;;;;;-2.01;74.76;100131.35;124595;1106;104231;-78
2021/03/19 00:31:30;;;;;;;25.37;16.07;;;;;;;-2.03;74.47;100125.36;124515;1105;104598;-78
2021/03/19 00:33:57;;;;;;;27.70;16.10;;;;;;;-2.04;74.52;100125.34;124866;1105;105333;-78
2021/03/19 00:36:24;;;;;;;26.53;16.43;;;;;;;-2.05;75.08;100124.48;124550;1106;104168;-78
2021/03/19 00:38:51;;;;;;;26.83;16.83;;;;;;;-2.06;74.38;100122.77;124552;1105;101787;-78
2021/03/19 00:41:19;;;;;;;26.93;15.87;;;;;;;-2.09;74.73;100121.85;124502;1105;104104;-78
2021/03/19 00:43:47;;;;;;;28.25;17.48;;;;;;;-2.10;74.37;100128.66;124506;1109;104379;-78
2021/03/19 00:46:15;;;;;;;29.93;17.40;;;;;;;-2.11;75.05;100126.94;124518;1109;104226;-78
2021/03/19 00:48:42;;;;;;;28.33;16.57;;;;;;;-2.15;73.88;100120.92;124544;1105;104185;-78
2021/03/19 00:51:11;;;;;;;26.57;15.53;;;;;;;-2.19;74.51;100125.94;124508;1108;104204;-79
2021/03/19 00:53:38;;;;;;;29.90;17.47;;;;;;;-2.24;74.28;100125.00;124563;1106;104357;-78
2021/03/19 00:56:06;;;;;;;30.17;16.43;;;;;;;-2.31;74.33;100118.08;124495;1105;104114;-79
2021/03/19 00:58:33;;;;;;;30.30;16.83;;;;;;;-2.37;74.66;100117.95;124652;1105;104296;-78
2021/03/19 01:01:00;;;;;;;29.97;17.33;;;;;;;-2.40;74.63;100118.77;124529;1109;104211;-78
2021/03/19 01:03:27;;;;;;;27.77;15.90;;;;;;;-2.40;74.60;100123.87;124555;1105;101684;-79
2021/03/19 01:05:54;;;;;;;29.67;16.67;;;;;;;-2.44;74.83;100116.99;124486;1105;104245;-78
2021/03/19 01:08:21;;;;;;;29.77;16.77;;;;;;;-2.46;74.89;100111.00;124497;1106;104211;-79
2021/03/19 01:10:52;;;;;;;25.83;15.30;;;;;;;-2.47;74.68;100117.80;124610;1105;104278;-79
2021/03/19 01:13:20;;;;;;;28.10;17.20;;;;;;;-2.49;74.70;100118.61;124536;1105;104156;-79
2021/03/19 01:15:48;;;;;;;30.13;16.40;;;;;;;-2.50;74.90;100129.66;124762;1105;104216;-78
2021/03/19 01:18:21;;;;;;;29.80;16.13;;;;;;;-2.53;74.67;100117.67;124778;1106;103922;-78
2021/03/19 01:20:49;;;;;;;25.23;15.80;;;;;;;-2.55;74.40;100121.03;124531;1106;104155;-78
2021/03/19 01:23:17;;;;;;;27.15;15.40;;;;;;;-2.58;74.53;100113.31;124764;1105;103762;-79
2021/03/19 01:25:44;;;;;;;26.15;15.50;;;;;;;-2.62;75.53;100112.41;124584;1105;104210;-78
2021/03/19 01:28:14;;;;;;;28.47;15.60;;;;;;;-2.65;74.61;100114.91;124567;1106;104227;-78
2021/03/19 01:30:43;;;;;;;28.83;16.07;;;;;;;-2.68;74.99;100112.30;124565;1105;104136;-78
2021/03/19 01:33:11;;;;;;;27.10;15.83;;;;;;;-2.71;74.70;100116.46;124607;1105;104242;-79
2021/03/19 01:35:41;;;;;;;27.57;16.07;;;;;;;-2.74;74.44;100119.83;124610;1106;104146;-78
2021/03/19 01:38:10;;;;;;;26.23;15.40;;;;;;;-2.76;74.91;100118.94;124655;1109;104158;-78
2021/03/19 01:40:46;;;;;;;25.60;14.77;;;;;;;-2.79;74.79;100119.74;124618;1105;104242;-78
2021/03/19 01:43:32;;;;;;;29.45;15.68;;;;;;;-2.80;75.53;100119.72;124538;1106;104149;-78
2021/03/19 01:46:37;;;;;;;27.90;14.37;;;;;;;-2.80;74.79;100119.72;124753;1105;104197;-78
2021/03/19 01:49:42;;;;;;;26.73;15.10;;;;;;;-2.79;75.64;100114.64;124836;1105;104644;-78
2021/03/19 01:52:47;;;;;;;23.03;13.87;;;;;;;-2.80;75.56;100112.06;124595;1105;104683;-78
2021/03/19 01:55:52;;;;;;;25.73;14.40;;;;;;;-2.82;75.72;100106.07;124723;1105;104710;-78
2021/03/19 01:58:57;;;;;;;24.53;14.60;;;;;;;-2.85;74.97;100109.42;124791;1105;104149;-78
2021/03/19 02:02:02;;;;;;;25.75;15.00;;;;;;;-2.87;75.66;100107.64;124795;1105;104134;-77
2021/03/19 02:05:07;;;;;;;26.13;14.80;;;;;;;-2.88;75.51;100114.44;124826;1105;104197;-78
2021/03/19 02:08:12;;;;;;;29.50;16.10;;;;;;;-2.90;75.74;100112.70;124797;1105;101725;-78
2021/03/19 02:11:17;;;;;;;27.73;14.50;;;;;;;-2.93;75.77;100108.39;124792;1105;101966;-78
2021/03/19 02:14:21;;;;;;;28.70;16.20;;;;;;;-2.95;75.59;100104.95;124708;1105;104361;-78
2021/03/19 02:17:26;;;;;;;29.63;15.47;;;;;;;-2.98;75.62;100106.59;124539;1105;104221;-78
2021/03/19 02:20:32;;;;;;;26.20;15.13;;;;;;;-3.02;75.77;100115.02;124816;1105;104208;-78
2021/03/19 02:23:38;;;;;;;26.27;16.17;;;;;;;-3.09;75.93;100106.36;124652;1105;104155;-78
2021/03/19 02:26:43;;;;;;;28.53;17.10;;;;;;;-3.13;74.99;100113.10;124546;1105;104348;-77
2021/03/19 02:29:49;;;;;;;26.97;14.70;;;;;;;-3.18;75.72;100119.80;124548;1105;104344;-78
2021/03/19 02:32:19;;;;;;;30.67;15.30;;;;;;;-3.22;76.11;100115.48;124808;1105;104149;-78
2021/03/19 02:34:54;;;;;;;32.90;16.93;;;;;;;-3.22;75.86;100110.38;124596;1105;104210;-78
2021/03/19 02:37:28;;;;;;;25.60;16.47;;;;;;;-3.22;75.56;100114.62;124587;1109;104088;-77
2021/03/19 02:39:56;;;;;;;29.47;15.50;;;;;;;-3.22;75.91;100107.83;124639;1105;105272;-79
2021/03/19 02:42:26;;;;;;;27.60;15.67;;;;;;;-3.21;76.22;100109.55;124508;1109;104412;-79
2021/03/19 02:44:55;;;;;;;26.00;14.97;;;;;;;-3.21;76.09;100114.64;124549;1109;104274;-79
2021/03/19 02:47:23;;;;;;;23.67;13.83;;;;;;;-3.19;76.47;100107.88;124619;1106;104229;-79
2021/03/19 02:49:50;;;;;;;26.53;15.60;;;;;;;-3.18;76.45;100113.84;124580;1109;104114;-79
2021/03/19 02:52:21;;;;;;;28.63;15.17;;;;;;;-3.14;76.61;100120.72;124598;1105;104239;-79
2021/03/19 02:54:51;;;;;;;24.23;14.37;;;;;;;-3.11;76.69;100111.44;124598;1109;104290;-78
2021/03/19 02:57:18;;;;;;;25.97;15.30;;;;;;;-3.07;76.20;100123.42;124607;1105;104082;-79
2021/03/19 02:59:46;;;;;;;25.97;14.57;;;;;;;-3.05;76.51;100116.69;124722;1105;104321;-79
2021/03/19 03:02:13;;;;;;;26.37;15.30;;;;;;;-3.00;76.82;100124.42;124718;1105;104239;-79
2021/03/19 03:04:40;;;;;;;25.12;13.83;;;;;;;-2.95;76.80;100124.51;124574;1106;104130;-79
2021/03/19 03:07:20;;;;;;;24.43;14.97;;;;;;;-2.92;76.35;100129.67;124523;1106;104107;-79
2021/03/19 03:09:47;;;;;;;25.67;15.40;;;;;;;-2.87;76.76;100130.61;124557;1109;104229;-78
2021/03/19 03:12:14;;;;;;;27.50;15.15;;;;;;;-2.81;76.53;100130.76;124522;1106;104206;-79
2021/03/19 03:14:41;;;;;;;27.20;14.60;;;;;;;-2.77;76.65;100132.53;124503;1106;104204;-78
2021/03/19 03:17:08;;;;;;;22.27;13.27;;;;;;;-2.74;77.20;100130.03;124508;1105;104249;-79
2021/03/19 03:19:36;;;;;;;27.47;13.97;;;;;;;-2.69;76.52;100128.45;124571;1106;104396;-78
2021/03/19 03:22:04;;;;;;;23.23;13.47;;;;;;;-2.64;76.68;100129.39;124550;1109;104197;-79
2021/03/19 03:24:32;;;;;;;26.47;14.97;;;;;;;-2.58;76.12;100128.64;124512;1105;104229;-78
2021/03/19 03:27:01;;;;;;;24.80;13.37;;;;;;;-2.54;76.30;100123.61;124576;1105;104181;-78
2021/03/19 03:29:28;;;;;;;22.87;14.13;;;;;;;-2.51;76.15;100126.25;124670;1105;104207;-78
2021/03/19 03:31:57;;;;;;;23.87;13.93;;;;;;;-2.48;76.40;100130.55;124622;1105;104290;-78
2021/03/19 03:34:25;;;;;;;27.63;15.83;;;;;;;-2.49;76.82;100132.23;124545;1105;104150;-78
2021/03/19 03:36:53;;;;;;;24.33;13.63;;;;;;;-2.47;76.65;100122.05;124620;1108;104221;-79
2021/03/19 03:39:27;;;;;;;25.93;14.43;;;;;;;-2.46;76.42;100134.84;124550;1109;104169;-79
2021/03/19 03:41:58;;;;;;;26.47;14.63;;;;;;;-2.40;75.99;100133.22;124491;1108;102983;-79
2021/03/19 03:44:25;;;;;;;26.70;14.53;;;;;;;-2.36;75.85;100129.88;124559;1106;104355;-78
2021/03/19 03:46:54;;;;;;;25.83;14.63;;;;;;;-2.32;76.42;100132.55;124553;1106;104130;-79
2021/03/19 03:49:23;;;;;;;26.03;14.70;;;;;;;-2.28;76.07;100130.90;124698;1105;104129;-79
2021/03/19 03:51:51;;;;;;;24.47;13.37;;;;;;;-2.27;76.00;100124.95;124568;1108;102564;-78
2021/03/19 03:54:19;;;;;;;25.33;14.83;;;;;;;-2.23;76.85;100124.17;124527;1109;104242;-78
2021/03/19 03:56:48;;;;;;;32.10;17.00;;;;;;;-2.18;75.81;100125.95;124525;1109;104182;-78
2021/03/19 03:59:15;;;;;;;25.93;15.40;;;;;;;-2.14;76.31;100132.00;124572;1105;103951;-79
2021/03/19 04:01:43;;;;;;;26.90;14.55;;;;;;;-2.11;76.22;100139.72;124562;1105;104173;-78
2021/03/19 04:04:16;;;;;;;27.93;15.73;;;;;;;-2.09;76.52;100134.63;124562;1106;104546;-79
2021/03/19 04:06:43;;;;;;;26.80;14.30;;;;;;;-2.08;76.08;100129.55;124717;1105;104448;-78
2021/03/19 04:09:10;;;;;;;25.05;13.75;;;;;;;-2.06;76.45;100134.67;124589;1105;104133;-79
2021/03/19 04:11:37;;;;;;;26.73;14.60;;;;;;;-2.06;76.72;100135.53;124539;1109;104194;-79
2021/03/19 04:14:05;;;;;;;30.17;16.80;;;;;;;-2.03;76.27;100133.03;124492;1109;104214;-79
2021/03/19 04:16:32;;;;;;;29.07;15.57;;;;;;;-2.01;76.06;100138.16;124684;1105;102442;-79
2021/03/19 04:18:59;;;;;;;27.20;15.33;;;;;;;-2.00;75.78;100135.63;124504;1109;104766;-79
2021/03/19 04:21:27;;;;;;;27.00;15.40;;;;;;;-1.99;76.13;100137.34;124534;1105;105781;-79
2021/03/19 04:23:54;;;;;;;26.37;14.37;;;;;;;-1.97;76.27;100140.81;124557;1105;104252;-78
2021/03/19 04:26:31;;;;;;;26.40;14.03;;;;;;;-1.96;76.32;100141.67;124604;1106;104166;-79
2021/03/19 04:28:59;;;;;;;29.33;15.73;;;;;;;-1.95;76.09;100139.14;124478;1109;103113;-78
2021/03/19 04:31:26;;;;;;;24.27;14.67;;;;;;;-1.91;75.68;100140.91;124496;1109;104323;-79
2021/03/19 04:33:54;;;;;;;22.47;13.73;;;;;;;-1.88;76.13;100135.84;124591;1105;104226;-78
2021/03/19 04:36:35;;;;;;;24.70;14.37;;;;;;;-1.86;75.85;100140.97;124496;1108;104283;-79
2021/03/19 04:39:06;;;;;;;26.07;14.90;;;;;;;-1.82;76.13;100133.37;124790;1106;103042;-79
2021/03/19 04:41:33;;;;;;;29.03;14.67;;;;;;;-1.78;76.63;100131.75;124552;1105;104123;-79
2021/03/19 04:44:03;;;;;;;28.07;14.17;;;;;;;-1.73;75.95;100137.78;124524;1105;104265;-79
2021/03/19 04:46:30;;;;;;;24.23;14.10;;;;;;;-1.68;76.46;100130.17;124732;1105;104117;-79
2021/03/19 04:48:58;;;;;;;25.47;14.40;;;;;;;-1.62;76.17;100136.23;124646;1105;104229;-79
2021/03/19 04:51:25;;;;;;;23.87;14.17;;;;;;;-1.58;76.30;100132.91;124539;1106;104181;-78
2021/03/19 04:53:53;;;;;;;20.65;13.30;;;;;;;-1.54;76.01;100133.80;124525;1109;104226;-79
2021/03/19 04:56:21;;;;;;;25.30;13.67;;;;;;;-1.51;75.85;100133.84;124553;1105;104833;-77
2021/03/19 04:58:49;;;;;;;23.70;14.43;;;;;;;-1.44;75.79;100127.11;124526;1105;102805;-78
2021/03/19 05:01:17;;;;;;;27.30;14.27;;;;;;;-1.39;75.93;100128.06;124676;1105;104053;-78
2021/03/19 05:03:47;;;;;;;23.77;14.00;;;;;;;-1.37;75.87;100132.35;124648;1106;101728;-77
2021/03/19 05:06:15;;;;;;;22.60;13.67;;;;;;;-1.34;75.49;100127.27;124646;1106;104388;-78
2021/03/19 05:08:43;;;;;;;25.77;14.43;;;;;;;-1.29;75.58;100127.33;124569;1109;104288;-78
2021/03/19 05:11:13;;;;;;;25.43;14.37;;;;;;;-1.26;75.58;100132.48;124543;1105;104181;-78
2021/03/19 05:13:41;;;;;;;22.30;13.70;;;;;;;-1.22;74.84;100129.15;124535;1106;104163;-78
2021/03/19 05:16:09;;;;;;;26.17;13.87;;;;;;;-1.19;75.25;100136.00;124700;1105;104380;-78
2021/03/19 05:18:36;;;;;;;23.80;14.17;;;;;;;-1.16;75.33;100138.59;124500;1109;104338;-78
2021/03/19 05:21:04;;;;;;;23.97;13.77;;;;;;;-1.12;74.52;100135.23;124509;1109;104178;-78
2021/03/19 05:23:35;;;;;;;22.32;13.03;;;;;;;-1.10;74.70;100139.53;124578;1106;104622;-78
2021/03/19 05:26:06;;;;;;;23.47;13.33;;;;;;;-1.02;74.54;100134.52;124635;1109;104166;-78
2021/03/19 05:28:33;;;;;;;27.95;15.25;;;;;;;-0.96;74.65;100147.39;124665;1106;104188;-78
2021/03/19 05:31:02;;;;;;;23.40;13.77;;;;;;;-0.93;74.91;100145.72;124591;1109;104221;-78
2021/03/19 05:33:50;;;;;;;26.10;15.30;;;;;;;-0.85;74.19;100143.28;124765;1105;104255;-78
2021/03/19 05:36:21;;;;;;;23.23;14.50;;;;;;;-0.76;74.80;100147.62;124617;1105;104226;-79
2021/03/19 05:38:48;;;;;;;23.73;14.53;;;;;;;-0.68;74.07;100152.02;124791;1105;104120;-78
2021/03/19 05:41:18;;;;;;;26.73;14.30;;;;;;;-0.58;74.22;100152.97;124593;1106;104166;-78
2021/03/19 05:44:08;;;;;;;21.30;13.23;;;;;;;-0.43;74.20;100154.84;124548;1109;104259;-78
2021/03/19 05:46:41;;;;;;;21.07;13.70;;;;;;;-0.07;73.60;100144.95;124608;1105;104395;-78
2021/03/19 05:49:09;;;;;;;22.53;13.60;;;;;;;0.88;73.56;100151.63;124609;1105;105482;-77
2021/03/19 05:51:49;;;;;;;25.37;14.23;;;;;;;1.37;71.75;100151.00;124734;1105;104166;-78
2021/03/19 05:54:41;;;;;;;23.60;14.20;;;;;;;1.61;71.09;100158.77;124568;1105;103041;-77
2021/03/19 05:57:19;;;;;;;21.93;13.20;;;;;;;2.59;70.96;100156.29;124539;1105;104252;-79
2021/03/19 05:59:49;;;;;;;25.20;14.27;;;;;;;3.00;68.62;100156.20;124539;1105;104107;-78
2021/03/19 06:02:35;;;;;;;24.97;14.67;;;;;;;2.96;68.41;100159.65;124609;1105;104153;-78
2021/03/19 06:05:33;;;;;;;26.70;14.68;;;;;;;3.42;68.27;100157.78;124568;1106;105351;-77
2021/03/19 06:08:07;;;;;;;25.07;13.80;;;;;;;3.59;67.24;100155.98;124805;1105;104149;-78
2021/03/19 06:10:40;;;;;;;24.33;14.07;;;;;;;3.48;65.98;100157.73;124600;1106;104268;-78
2021/03/19 06:13:12;;;;;;;22.60;13.83;;;;;;;3.34;65.85;100159.52;124543;1106;103944;-77
2021/03/19 06:15:42;;;;;;;25.03;15.60;;;;;;;3.09;65.91;100163.06;124497;1105;104153;-78
2021/03/19 06:18:39;;;;;;;22.70;13.17;;;;;;;2.88;66.37;100162.27;124569;1106;104203;-78
2021/03/19 06:21:10;;;;;;;19.93;12.00;;;;;;;2.71;66.32;100162.29;124750;1105;104078;-78
2021/03/19 06:23:46;;;;;;;29.50;15.00;;;;;;;2.55;66.63;100159.73;124837;1105;105437;-78
2021/03/19 06:26:20;;;;;;;22.52;12.98;;;;;;;2.46;67.05;100170.03;124784;1105;104188;-77
2021/03/19 06:28:53;;;;;;;22.33;13.07;;;;;;;2.41;66.96;100158.02;124762;1105;104111;-78
2021/03/19 06:31:28;;;;;;;21.10;12.77;;;;;;;2.38;67.52;100162.32;124615;1105;105079;-78
2021/03/19 06:34:03;;;;;;;21.53;13.23;;;;;;;2.47;67.51;100158.87;124621;1105;104114;-78
2021/03/19 06:36:48;;;;;;;22.50;13.53;;;;;;;2.69;67.57;100155.40;124788;1105;104226;-78
2021/03/19 06:39:27;;;;;;;21.10;13.47;;;;;;;2.90;67.01;100155.38;124586;1106;104305;-78
2021/03/19 06:42:27;;;;;;;22.70;14.00;;;;;;;3.12;67.04;100161.32;124660;1106;104284;-78
2021/03/19 06:45:06;;;;;;;23.17;13.90;;;;;;;3.24;66.06;100165.59;124746;1105;104236;-78
2021/03/19 06:47:38;;;;;;;25.57;14.53;;;;;;;3.22;65.71;100159.55;124583;1106;104213;-78
2021/03/19 06:50:06;;;;;;;21.40;13.20;;;;;;;3.19;65.87;100159.56;124801;1105;104162;-78
2021/03/19 06:52:35;;;;;;;20.30;13.03;;;;;;;3.21;65.91;100163.00;124526;1109;104072;-79
2021/03/19 06:55:51;;;;;;;19.30;11.40;;;;;;;3.28;65.73;100159.55;124618;1105;104120;-78
2021/03/19 06:58:45;;;;;;;24.43;14.47;;;;;;;3.35;65.71;100166.38;124621;1105;104207;-77
2021/03/19 07:01:35;;;;;;;22.23;13.13;;;;;;;3.47;65.47;100158.61;124585;1106;104210;-79
2021/03/19 07:04:23;;;;;;;22.60;13.10;;;;;;;3.63;64.57;100152.51;124585;1106;104324;-79
2021/03/19 07:07:02;;;;;;;23.55;14.25;;;;;;;3.90;64.65;100156.63;124543;1109;104261;-77
2021/03/19 07:09:52;;;;;;;25.27;14.23;;;;;;;4.14;64.38;100153.04;124588;1105;104107;-78
2021/03/19 07:12:54;;;;;;;22.03;13.17;;;;;;;4.49;63.79;100165.66;124564;1105;104217;-79
2021/03/19 07:15:36;;;;;;;25.10;14.70;;;;;;;4.58;63.55;100156.11;124699;1105;104216;-78
2021/03/19 07:18:19;;;;;;;22.03;13.87;;;;;;;4.61;63.30;100159.52;124774;1105;104104;-79
2021/03/19 07:21:17;;;;;;;23.97;14.37;;;;;;;4.55;63.02;100163.02;124567;1109;104101;-79
2021/03/19 07:23:47;;;;;;;24.23;15.10;;;;;;;4.38;62.54;100164.89;124763;1105;104220;-78
2021/03/19 07:26:22;;;;;;;23.67;14.43;;;;;;;4.16;62.02;100171.95;124607;1106;104213;-78
2021/03/19 07:29:27;;;;;;;24.17;15.27;;;;;;;3.84;62.50;100166.14;124509;1109;102537;-80
2021/03/19 07:32:06;;;;;;;23.07;15.57;;;;;;;3.59;63.28;100168.87;124653;1105;104233;-79
2021/03/19 07:34:55;;;;;;;24.87;15.40;;;;;;;3.49;63.08;100164.61;124540;1106;104274;-79
2021/03/19 07:37:57;;;;;;;23.40;15.20;;;;;;;3.40;62.86;100174.09;124536;1105;104267;-77
2021/03/19 07:40:24;;;;;;;23.40;15.63;;;;;;;3.22;63.39;100177.59;124563;1105;104160;-78
2021/03/19 07:43:20;;;;;;;26.27;16.17;;;;;;;3.12;63.29;100163.90;124573;1106;104213;-77
2021/03/19 07:45:59;;;;;;;26.63;17.60;;;;;;;3.01;63.68;100171.64;124501;1106;104236;-78
2021/03/19 07:48:46;;;;;;;24.80;16.80;;;;;;;3.03;63.55;100169.06;124473;1105;104117;-79
2021/03/19 07:51:39;;;;;;;21.80;15.50;;;;;;;3.11;63.65;100177.65;124495;1109;104028;-79
2021/03/19 07:54:17;;;;;;;24.43;15.67;;;;;;;3.58;63.15;100174.86;124474;1108;104249;-79
2021/03/19 07:57:02;;;;;;;28.13;18.03;;;;;;;4.00;63.09;100166.91;124527;1109;104248;-79
2021/03/19 07:59:51;;;;;;;27.30;17.63;;;;;;;4.44;62.89;100163.97;124465;1109;104290;-79
2021/03/19 08:02:46;;;;;;;25.83;17.13;;;;;;;4.71;62.26;100168.91;124419;1109;104271;-79
2021/03/19 08:05:25;;;;;;;24.60;17.23;;;;;;;4.79;61.42;100172.25;124462;1109;104427;-79
2021/03/19 08:08:12;;;;;;;32.57;20.10;;;;;;;4.95;61.88;100166.94;124471;1107;104655;-79
2021/03/19 08:10:51;;;;;;;29.90;20.83;;;;;;;5.31;61.53;100168.25;124480;1109;104233;-79
2021/03/19 08:13:42;;;;;;;25.93;18.00;;;;;;;6.72;60.79;100156.69;124421;1105;104277;-79
2021/03/19 08:16:41;;;;;;;25.83;18.77;;;;;;;8.62;59.00;100154.33;124479;1106;104364;-79
2021/03/19 08:19:17;;;;;;;27.27;18.73;;;;;;;10.40;56.96;100141.27;124548;1106;104184;-79
2021/03/19 08:22:17;;;;;;;23.57;17.10;;;;;;;10.92;55.16;100143.86;124468;1106;104267;-80
2021/03/19 08:24:55;;;;;;;20.63;15.57;;;;;;;11.06;53.49;100139.02;124396;1109;104152;-79
2021/03/19 08:27:34;;;;;;;23.10;16.17;;;;;;;11.14;53.06;100144.83;124419;1109;104313;-79
2021/03/19 08:30:36;;;;;;;33.77;23.70;;;;;;;11.57;52.02;100135.40;124294;1109;104338;-78
2021/03/19 08:33:21;;;;;;;24.47;18.10;;;;;;;11.92;50.89;100139.30;124478;1109;104599;-79
2021/03/19 08:36:01;;;;;;;21.43;16.10;;;;;;;11.68;50.24;100138.46;124246;1109;104297;-78
2021/03/19 08:38:38;;;;;;;21.33;16.70;;;;;;;11.25;49.18;100145.27;124363;1109;101597;-79
2021/03/19 08:41:13;;;;;;;20.08;14.75;;;;;;;10.68;49.36;100140.36;124234;1109;104313;-79
2021/03/19 08:43:48;;;;;;;24.63;16.57;;;;;;;10.26;49.53;100136.53;124553;1109;104382;-79
2021/03/19 08:46:27;;;;;;;22.03;16.30;;;;;;;10.86;51.01;100142.33;124232;1109;104072;-79
2021/03/19 08:49:00;;;;;;;22.97;16.67;;;;;;;11.79;49.68;100142.37;124433;1109;104153;-79
2021/03/19 08:51:27;;;;;;;21.50;15.93;;;;;;;12.46;48.36;100144.06;124486;1109;104203;-79
2021/03/19 08:54:31;;;;;;;18.40;13.83;;;;;;;12.38;46.81;100135.66;124519;1108;103277;-79
2021/03/19 08:57:03;;;;;;;18.50;13.80;;;;;;;11.54;46.42;100143.35;124269;1109;104239;-79
2021/03/19 08:59:30;;;;;;;18.07;13.93;;;;;;;11.28;47.55;100139.93;124281;1108;104142;-79
2021/03/19 09:02:16;;;;;;;18.25;13.05;;;;;;;11.24;47.24;100143.57;124677;1105;104230;-79
2021/03/19 09:04:54;;;;;;;16.73;12.87;;;;;;;10.72;47.27;100134.98;124541;1105;104278;-79
2021/03/19 09:07:26;;;;;;;17.37;12.53;;;;;;;10.01;46.76;100138.16;124784;1105;104319;-79
2021/03/19 09:09:58;;;;;;;17.03;13.07;;;;;;;9.45;47.76;100145.95;124539;1106;104325;-79
2021/03/19 09:12:29;;;;;;;18.50;12.75;;;;;;;9.13;47.90;100148.61;124594;1109;104578;-80
2021/03/19 09:15:15;;;;;;;16.00;12.13;;;;;;;8.95;48.20;100144.77;124615;1109;104194;-78
2021/03/19 09:17:48;;;;;;;16.83;11.97;;;;;;;8.81;48.55;100142.55;124546;1105;104102;-79
2021/03/19 09:20:27;;;;;;;18.87;13.30;;;;;;;8.55;48.54;100145.81;124579;1105;104187;-79
2021/03/19 09:23:07;;;;;;;17.13;12.43;;;;;;;8.38;49.35;100141.03;124569;1106;104291;-79
2021/03/19 09:25:51;;;;;;;17.30;12.90;;;;;;;8.42;48.73;100141.80;124620;1105;104302;-79
2021/03/19 09:28:55;;;;;;;15.40;11.90;;;;;;;8.34;49.04;100142.01;124507;1106;104172;-78
2021/03/19 09:31:24;;;;;;;20.07;12.03;;;;;;;8.02;49.44;100137.55;124527;1109;104179;-79
2021/03/19 09:33:52;;;;;;;18.27;12.10;;;;;;;7.72;49.19;100141.72;124701;1105;104274;-78
2021/03/19 09:36:57;;;;;;;15.70;12.00;;;;;;;7.53;49.42;100138.64;124518;1105;104297;-78
2021/03/19 09:39:55;;;;;;;14.97;10.97;;;;;;;7.55;49.85;100141.23;124756;1105;104168;-79
2021/03/19 09:42:23;;;;;;;17.37;12.60;;;;;;;8.00;50.02;100141.92;124697;1105;104133;-79
2021/03/19 09:45:00;;;;;;;15.05;11.30;;;;;;;8.57;49.22;100148.37;124588;1105;104156;-79
2021/03/19 09:47:33;;;;;;;17.47;11.97;;;;;;;8.87;48.83;100142.37;124576;1105;103017;-78
2021/03/19 09:50:24;;;;;;;18.63;13.03;;;;;;;8.79;48.59;100154.72;124542;1106;104146;-79
2021/03/19 09:53:06;;;;;;;19.07;13.87;;;;;;;8.54;48.54;100145.85;124593;1105;104120;-79
2021/03/19 09:55:51;;;;;;;18.55;13.55;;;;;;;8.18;48.89;100144.09;124517;1105;104797;-78
2021/03/19 09:58:18;;;;;;;18.70;13.97;;;;;;;7.92;48.88;100148.20;124510;1109;104118;-78
2021/03/19 10:00:48;;;;;;;17.07;12.73;;;;;;;7.62;48.89;100147.98;124718;1105;104273;-79
2021/03/19 10:03:16;;;;;;;18.13;12.57;;;;;;;7.42;49.77;100150.15;124730;1105;104262;-79
2021/03/19 10:05:47;;;;;;;15.30;11.90;;;;;;;7.76;50.18;100143.34;124536;1106;104248;-79
2021/03/19 10:08:29;;;;;;;18.43;12.50;;;;;;;8.77;50.27;100151.30;124639;1105;104207;-79
2021/03/19 10:11:09;;;;;;;22.23;14.13;;;;;;;10.01;50.47;100140.77;124520;1109;101850;-79
2021/03/19 10:13:37;;;;;;;17.40;12.70;;;;;;;10.73;47.90;100136.67;124493;1105;104184;-78
2021/03/19 10:16:05;;;;;;;14.93;11.57;;;;;;;10.76;47.02;100147.00;124484;1105;104139;-78
2021/03/19 10:18:50;;;;;;;15.13;11.60;;;;;;;10.88;46.18;100146.59;124659;1105;104226;-78
2021/03/19 10:21:21;;;;;;;17.83;11.30;;;;;;;10.79;45.96;100141.70;124481;1109;104134;-78
2021/03/19 10:23:53;;;;;;;13.73;9.77;;;;;;;10.42;44.92;100151.67;124582;1109;104168;-78
2021/03/19 10:26:34;;;;;;;13.97;10.23;;;;;;;10.09;45.38;100145.77;124761;1104;103031;-78
2021/03/19 10:29:31;;;;;;;12.00;8.90;;;;;;;9.87;45.59;100149.01;124565;1105;104281;-79
2021/03/19 10:32:05;;;;;;;13.63;8.97;;;;;;;9.84;45.36;100148.25;124729;1105;104239;-78
2021/03/19 10:34:47;;;;;;;13.27;9.90;;;;;;;9.65;45.00;100156.63;124698;1105;104206;-77
2021/03/19 10:37:35;;;;;;;18.67;12.60;;;;;;;9.46;45.65;100162.42;124606;1106;104204;-77
2021/03/19 10:40:08;;;;;;;20.70;14.37;;;;;;;9.31;45.49;100161.10;124580;1108;104181;-78
2021/03/19 10:42:51;;;;;;;15.63;11.17;;;;;;;9.35;45.20;100154.94;124548;1105;104255;-79
2021/03/19 10:45:40;;;;;;;15.33;10.97;;;;;;;9.26;45.36;100153.44;124609;1106;104112;-79
2021/03/19 10:48:34;;;;;;;11.73;9.53;;;;;;;9.21;45.04;100151.86;124717;1105;104194;-78
2021/03/19 10:51:07;;;;;;;14.10;9.87;;;;;;;9.12;45.47;100152.11;124561;1105;102517;-78
2021/03/19 10:53:40;;;;;;;13.83;10.60;;;;;;;8.94;45.18;100150.86;124688;1106;104191;-79
2021/03/19 10:56:08;;;;;;;14.30;10.57;;;;;;;8.74;45.10;100148.79;124564;1105;104305;-78
2021/03/19 10:58:50;;;;;;;15.10;10.30;;;;;;;8.54;45.56;100153.65;124563;1109;104111;-78
2021/03/19 11:01:37;;;;;;;17.37;11.70;;;;;;;8.30;45.78;100142.95;124487;1105;104118;-78
2021/03/19 11:04:33;;;;;;;15.13;11.07;;;;;;;8.06;46.01;100140.92;124598;1105;104294;-78
2021/03/19 11:07:36;;;;;;;14.47;9.57;;;;;;;7.84;45.63;100141.42;124500;1105;104272;-78
2021/03/19 11:10:13;;;;;;;13.60;9.43;;;;;;;7.66;46.14;100140.97;124358;1109;104399;-79
2021/03/19 11:12:52;;;;;;;14.70;9.70;;;;;;;7.52;45.92;100144.72;124189;1109;104232;-78
2021/03/19 11:15:32;;;;;;;12.97;9.03;;;;;;;7.43;46.58;100138.88;124211;1109;104255;-78
2021/03/19 11:18:34;;;;;;;14.07;9.07;;;;;;;7.33;46.70;100145.13;124300;1109;104162;-78
2021/03/19 11:21:29;;;;;;;12.73;8.70;;;;;;;7.15;46.23;100149.80;124333;1109;104313;-78
2021/03/19 11:24:17;;;;;;;10.97;8.07;;;;;;;6.98;46.32;100147.53;124443;1109;104239;-78
2021/03/19 11:27:02;;;;;;;10.73;8.00;;;;;;;6.91;47.22;100145.10;124267;1111;104261;-77
2021/03/19 11:29:35;;;;;;;13.60;9.00;;;;;;;6.92;47.46;100141.63;124304;1109;104488;-78
2021/03/19 11:32:12;;;;;;;11.37;8.10;;;;;;;6.87;46.35;100144.31;124245;1108;104204;-78
2021/03/19 11:34:41;;;;;;;10.13;7.63;;;;;;;6.84;46.69;100140.92;124176;1109;104611;-77
2021/03/19 11:37:28;;;;;;;10.43;7.37;;;;;;;6.76;46.12;100140.20;124388;1109;104172;-79
2021/03/19 11:40:18;;;;;;;8.90;6.90;;;;;;;6.55;46.61;100146.62;124194;1109;104182;-78
2021/03/19 11:42:54;;;;;;;14.13;9.60;;;;;;;6.38;46.30;100133.95;124303;1109;104182;-79